Ana Sayfa
METAR-TAF:

METAR-TAF

Havaalanları :

Afton, Wyoming, Amerika Birleşik Devletleri

Enlem: 42-42-32N, Boylam: 110-56-32W, yükseklik: 1896 m

Güncel hava durumu gözlemi

Rapor saat 18:15 UTC de 39 dakika önce yapıldı.
Sakin rüzgar
Sıcaklık 1°C
Nem 93%
Basınç 1011 hPa
Görüş mesafesi: 4.0 km
800 ft yükseklikte parçalı bulutlu
3000 ft yükseklikte parçalı çok bulutlu
4900 ft yükseklikte çok bulutlu
hafif kar

METAR: KAFO 081815Z AUTO 00000KT 2 1/2SM -SN SCT008 BKN030 OVC049 01/00 A2985 RMK AO2

Saat: 11:54 (18:54 UTC)


TAF: eksik

4.000'den fazla havaalanı için hava durumu gözlemleri ve tahminleri (METAR ve TAF raporları).

Kullanılabilir istasyonlar harita üzerinde sarı ve kırmızı noktalarla gösterilir.

İstasyonun adını görmek için fareyi noktanın üzerinde gezdirin.

Sonrasında hava gözlem ve tahminlerini görmek için tıklayın.

Haritayı değiştirmek için: yaklaştırmak için siyah artı işaretli yeşil düğmeye ve uzaklaştırmak için de eksi işaretli düğmeye hızla tıklayın; bitişik haritalar için yeşil okları kullanın.


METAR-TAF: